sensor_id;sensor_type;location;lat;lon;timestamp;P1;durP1;ratioP1;P2;durP2;ratioP2
79691;SDS011;69158;55.592;37.610;2023-04-24T00:02:23;25.50;;;7.18;;
79691;SDS011;69158;55.592;37.610;2023-04-24T00:05:09;19.38;;;7.00;;
79691;SDS011;69158;55.592;37.610;2023-04-24T00:07:57;20.55;;;7.45;;
79691;SDS011;69158;55.592;37.610;2023-04-24T00:10:44;25.70;;;7.78;;
79691;SDS011;69158;55.592;37.610;2023-04-24T00:13:30;19.42;;;6.82;;
79691;SDS011;69158;55.592;37.610;2023-04-24T00:16:18;24.27;;;7.40;;
79691;SDS011;69158;55.592;37.610;2023-04-24T00:19:06;28.38;;;8.13;;
79691;SDS011;69158;55.592;37.610;2023-04-24T00:21:52;21.17;;;6.80;;
79691;SDS011;69158;55.592;37.610;2023-04-24T00:24:39;21.63;;;8.82;;
79691;SDS011;69158;55.592;37.610;2023-04-24T00:27:25;19.65;;;7.63;;
79691;SDS011;69158;55.592;37.610;2023-04-24T00:30:13;18.83;;;7.05;;
79691;SDS011;69158;55.592;37.610;2023-04-24T00:32:59;17.85;;;7.45;;
79691;SDS011;69158;55.592;37.610;2023-04-24T00:35:45;15.50;;;8.38;;
79691;SDS011;69158;55.592;37.610;2023-04-24T00:38:31;15.20;;;6.88;;
79691;SDS011;69158;55.592;37.610;2023-04-24T00:41:18;17.13;;;6.50;;
79691;SDS011;69158;55.592;37.610;2023-04-24T00:44:05;20.33;;;8.50;;
79691;SDS011;69158;55.592;37.610;2023-04-24T00:46:51;20.90;;;8.68;;
79691;SDS011;69158;55.592;37.610;2023-04-24T00:49:40;18.00;;;7.53;;
79691;SDS011;69158;55.592;37.610;2023-04-24T00:52:26;19.63;;;10.07;;
79691;SDS011;69158;55.592;37.610;2023-04-24T00:55:12;18.77;;;8.85;;
79691;SDS011;69158;55.592;37.610;2023-04-24T00:57:58;20.67;;;9.88;;
79691;SDS011;69158;55.592;37.610;2023-04-24T01:00:44;18.23;;;10.10;;
79691;SDS011;69158;55.592;37.610;2023-04-24T01:03:31;22.08;;;8.82;;
79691;SDS011;69158;55.592;37.610;2023-04-24T01:06:18;20.55;;;9.10;;
79691;SDS011;69158;55.592;37.610;2023-04-24T01:09:05;19.40;;;8.40;;
79691;SDS011;69158;55.592;37.610;2023-04-24T01:11:53;15.82;;;8.00;;
79691;SDS011;69158;55.592;37.610;2023-04-24T01:14:40;18.77;;;8.88;;
79691;SDS011;69158;55.592;37.610;2023-04-24T01:17:26;18.73;;;9.93;;
79691;SDS011;69158;55.592;37.610;2023-04-24T01:20:12;22.20;;;7.63;;
79691;SDS011;69158;55.592;37.610;2023-04-24T01:22:59;22.20;;;11.48;;
79691;SDS011;69158;55.592;37.610;2023-04-24T01:25:45;21.17;;;8.23;;
79691;SDS011;69158;55.592;37.610;2023-04-24T01:28:32;20.40;;;9.95;;
79691;SDS011;69158;55.592;37.610;2023-04-24T01:31:19;19.65;;;9.77;;
79691;SDS011;69158;55.592;37.610;2023-04-24T01:34:05;14.35;;;8.32;;
79691;SDS011;69158;55.592;37.610;2023-04-24T01:36:51;17.13;;;9.35;;
79691;SDS011;69158;55.592;37.610;2023-04-24T01:39:38;22.05;;;11.93;;
79691;SDS011;69158;55.592;37.610;2023-04-24T01:42:23;22.40;;;9.70;;
79691;SDS011;69158;55.592;37.610;2023-04-24T01:45:11;23.60;;;8.98;;
79691;SDS011;69158;55.592;37.610;2023-04-24T01:47:58;27.15;;;10.50;;
79691;SDS011;69158;55.592;37.610;2023-04-24T01:50:45;20.10;;;11.13;;
79691;SDS011;69158;55.592;37.610;2023-04-24T01:53:31;25.17;;;10.05;;
79691;SDS011;69158;55.592;37.610;2023-04-24T01:56:17;20.15;;;8.95;;
79691;SDS011;69158;55.592;37.610;2023-04-24T01:59:04;25.05;;;11.65;;
79691;SDS011;69158;55.592;37.610;2023-04-24T02:01:51;22.23;;;11.55;;
79691;SDS011;69158;55.592;37.610;2023-04-24T02:04:37;27.23;;;12.90;;
79691;SDS011;69158;55.592;37.610;2023-04-24T02:07:23;25.42;;;11.35;;
79691;SDS011;69158;55.592;37.610;2023-04-24T02:10:09;21.13;;;10.23;;
79691;SDS011;69158;55.592;37.610;2023-04-24T02:12:57;24.50;;;9.73;;
79691;SDS011;69158;55.592;37.610;2023-04-24T02:15:45;25.23;;;14.10;;
79691;SDS011;69158;55.592;37.610;2023-04-24T02:18:31;24.63;;;11.88;;
79691;SDS011;69158;55.592;37.610;2023-04-24T02:21:17;23.20;;;11.35;;
79691;SDS011;69158;55.592;37.610;2023-04-24T02:24:03;24.50;;;9.80;;
79691;SDS011;69158;55.592;37.610;2023-04-24T02:26:49;34.10;;;11.75;;
79691;SDS011;69158;55.592;37.610;2023-04-24T02:29:35;20.48;;;10.43;;
79691;SDS011;69158;55.592;37.610;2023-04-24T02:32:21;22.23;;;10.02;;
79691;SDS011;69158;55.592;37.610;2023-04-24T02:35:07;19.63;;;12.20;;
79691;SDS011;69158;55.592;37.610;2023-04-24T02:37:54;28.42;;;13.50;;
79691;SDS011;69158;55.592;37.610;2023-04-24T02:40:39;24.27;;;11.98;;
79691;SDS011;69158;55.592;37.610;2023-04-24T02:43:25;23.58;;;12.07;;
79691;SDS011;69158;55.592;37.610;2023-04-24T02:46:12;24.88;;;13.00;;
79691;SDS011;69158;55.592;37.610;2023-04-24T02:48:57;25.50;;;12.10;;
79691;SDS011;69158;55.592;37.610;2023-04-24T02:51:43;24.08;;;12.70;;
79691;SDS011;69158;55.592;37.610;2023-04-24T02:54:29;24.67;;;10.60;;
79691;SDS011;69158;55.592;37.610;2023-04-24T02:57:15;22.38;;;12.88;;
79691;SDS011;69158;55.592;37.610;2023-04-24T03:00:01;25.95;;;11.15;;
79691;SDS011;69158;55.592;37.610;2023-04-24T03:02:48;22.50;;;11.70;;
79691;SDS011;69158;55.592;37.610;2023-04-24T03:05:35;30.27;;;12.05;;
79691;SDS011;69158;55.592;37.610;2023-04-24T03:08:22;22.92;;;10.00;;
79691;SDS011;69158;55.592;37.610;2023-04-24T03:11:08;23.25;;;12.57;;
79691;SDS011;69158;55.592;37.610;2023-04-24T03:13:54;25.65;;;11.60;;
79691;SDS011;69158;55.592;37.610;2023-04-24T03:16:40;24.20;;;13.20;;
79691;SDS011;69158;55.592;37.610;2023-04-24T03:19:26;28.95;;;11.27;;
79691;SDS011;69158;55.592;37.610;2023-04-24T03:22:12;18.90;;;10.23;;
79691;SDS011;69158;55.592;37.610;2023-04-24T03:24:58;19.90;;;10.18;;
79691;SDS011;69158;55.592;37.610;2023-04-24T03:27:44;22.63;;;10.35;;
79691;SDS011;69158;55.592;37.610;2023-04-24T03:30:30;27.17;;;11.65;;
79691;SDS011;69158;55.592;37.610;2023-04-24T03:33:16;23.90;;;12.63;;
79691;SDS011;69158;55.592;37.610;2023-04-24T03:36:02;23.48;;;12.88;;
79691;SDS011;69158;55.592;37.610;2023-04-24T03:38:48;22.15;;;11.65;;
79691;SDS011;69158;55.592;37.610;2023-04-24T03:41:34;19.38;;;11.50;;
79691;SDS011;69158;55.592;37.610;2023-04-24T03:44:20;27.98;;;13.23;;
79691;SDS011;69158;55.592;37.610;2023-04-24T03:47:06;26.70;;;12.48;;
79691;SDS011;69158;55.592;37.610;2023-04-24T03:49:52;24.27;;;10.65;;
79691;SDS011;69158;55.592;37.610;2023-04-24T03:52:41;24.02;;;13.18;;
79691;SDS011;69158;55.592;37.610;2023-04-24T03:55:27;31.88;;;13.18;;
79691;SDS011;69158;55.592;37.610;2023-04-24T03:58:13;24.30;;;12.07;;
79691;SDS011;69158;55.592;37.610;2023-04-24T04:01:00;26.05;;;14.57;;
79691;SDS011;69158;55.592;37.610;2023-04-24T04:03:46;23.65;;;11.10;;
79691;SDS011;69158;55.592;37.610;2023-04-24T04:06:34;25.05;;;13.10;;
79691;SDS011;69158;55.592;37.610;2023-04-24T04:09:21;23.30;;;13.65;;
79691;SDS011;69158;55.592;37.610;2023-04-24T04:12:07;26.48;;;12.43;;
79691;SDS011;69158;55.592;37.610;2023-04-24T04:14:53;29.15;;;14.45;;
79691;SDS011;69158;55.592;37.610;2023-04-24T04:17:39;26.17;;;11.63;;
79691;SDS011;69158;55.592;37.610;2023-04-24T04:20:25;31.27;;;13.38;;
79691;SDS011;69158;55.592;37.610;2023-04-24T04:23:14;29.92;;;15.68;;
79691;SDS011;69158;55.592;37.610;2023-04-24T04:26:00;29.80;;;14.27;;
79691;SDS011;69158;55.592;37.610;2023-04-24T04:28:47;27.35;;;13.63;;
79691;SDS011;69158;55.592;37.610;2023-04-24T04:31:34;32.85;;;14.13;;
79691;SDS011;69158;55.592;37.610;2023-04-24T04:34:20;34.55;;;16.77;;
79691;SDS011;69158;55.592;37.610;2023-04-24T04:37:06;33.30;;;15.55;;
79691;SDS011;69158;55.592;37.610;2023-04-24T04:39:52;27.52;;;14.13;;
79691;SDS011;69158;55.592;37.610;2023-04-24T04:42:39;25.90;;;11.95;;
79691;SDS011;69158;55.592;37.610;2023-04-24T04:45:28;34.95;;;15.95;;
79691;SDS011;69158;55.592;37.610;2023-04-24T04:48:14;28.70;;;15.13;;
79691;SDS011;69158;55.592;37.610;2023-04-24T04:51:03;30.42;;;15.20;;
79691;SDS011;69158;55.592;37.610;2023-04-24T04:53:49;28.50;;;13.13;;
79691;SDS011;69158;55.592;37.610;2023-04-24T04:56:35;29.67;;;13.27;;
79691;SDS011;69158;55.592;37.610;2023-04-24T04:59:21;34.40;;;13.43;;
79691;SDS011;69158;55.592;37.610;2023-04-24T05:02:06;26.92;;;13.15;;
79691;SDS011;69158;55.592;37.610;2023-04-24T05:04:53;34.00;;;17.27;;
79691;SDS011;69158;55.592;37.610;2023-04-24T05:07:39;27.20;;;13.02;;
79691;SDS011;69158;55.592;37.610;2023-04-24T05:10:25;29.60;;;14.93;;
79691;SDS011;69158;55.592;37.610;2023-04-24T05:13:11;25.95;;;11.80;;
79691;SDS011;69158;55.592;37.610;2023-04-24T05:15:57;28.58;;;14.48;;
79691;SDS011;69158;55.592;37.610;2023-04-24T05:18:43;27.83;;;13.30;;
79691;SDS011;69158;55.592;37.610;2023-04-24T05:21:29;25.20;;;12.88;;
79691;SDS011;69158;55.592;37.610;2023-04-24T05:24:16;32.00;;;15.07;;
79691;SDS011;69158;55.592;37.610;2023-04-24T05:27:02;28.30;;;11.65;;
79691;SDS011;69158;55.592;37.610;2023-04-24T05:29:50;27.33;;;12.07;;
79691;SDS011;69158;55.592;37.610;2023-04-24T05:32:36;27.77;;;13.35;;
79691;SDS011;69158;55.592;37.610;2023-04-24T05:35:22;27.67;;;11.85;;
79691;SDS011;69158;55.592;37.610;2023-04-24T05:38:08;23.58;;;11.73;;
79691;SDS011;69158;55.592;37.610;2023-04-24T05:40:54;28.52;;;12.18;;
79691;SDS011;69158;55.592;37.610;2023-04-24T05:43:40;24.13;;;12.38;;
79691;SDS011;69158;55.592;37.610;2023-04-24T05:46:25;37.45;;;13.65;;
79691;SDS011;69158;55.592;37.610;2023-04-24T05:49:11;33.55;;;13.07;;
79691;SDS011;69158;55.592;37.610;2023-04-24T05:51:59;31.88;;;12.98;;
79691;SDS011;69158;55.592;37.610;2023-04-24T05:54:45;26.85;;;12.77;;
79691;SDS011;69158;55.592;37.610;2023-04-24T05:57:33;35.97;;;15.75;;
79691;SDS011;69158;55.592;37.610;2023-04-24T06:00:19;28.48;;;12.07;;
79691;SDS011;69158;55.592;37.610;2023-04-24T06:03:05;29.92;;;13.13;;
79691;SDS011;69158;55.592;37.610;2023-04-24T06:05:51;25.75;;;13.38;;
79691;SDS011;69158;55.592;37.610;2023-04-24T06:08:37;30.90;;;13.60;;
79691;SDS011;69158;55.592;37.610;2023-04-24T06:11:24;30.52;;;14.02;;
79691;SDS011;69158;55.592;37.610;2023-04-24T06:14:10;29.55;;;12.95;;
79691;SDS011;69158;55.592;37.610;2023-04-24T06:16:56;23.42;;;14.73;;
79691;SDS011;69158;55.592;37.610;2023-04-24T06:19:42;34.15;;;11.40;;
79691;SDS011;69158;55.592;37.610;2023-04-24T06:22:28;31.50;;;14.13;;
79691;SDS011;69158;55.592;37.610;2023-04-24T06:25:14;31.13;;;15.10;;
79691;SDS011;69158;55.592;37.610;2023-04-24T06:28:00;30.80;;;14.88;;
79691;SDS011;69158;55.592;37.610;2023-04-24T06:30:49;28.58;;;17.60;;
79691;SDS011;69158;55.592;37.610;2023-04-24T06:33:35;31.20;;;13.48;;
79691;SDS011;69158;55.592;37.610;2023-04-24T06:36:22;26.83;;;14.07;;
79691;SDS011;69158;55.592;37.610;2023-04-24T06:39:08;23.58;;;13.13;;
79691;SDS011;69158;55.592;37.610;2023-04-24T06:41:54;30.15;;;14.85;;
79691;SDS011;69158;55.592;37.610;2023-04-24T06:44:43;32.78;;;13.38;;
79691;SDS011;69158;55.592;37.610;2023-04-24T06:47:29;26.77;;;12.23;;
79691;SDS011;69158;55.592;37.610;2023-04-24T06:50:18;25.65;;;12.18;;
79691;SDS011;69158;55.592;37.610;2023-04-24T06:53:04;23.98;;;13.15;;
79691;SDS011;69158;55.592;37.610;2023-04-24T06:55:50;31.48;;;15.25;;
79691;SDS011;69158;55.592;37.610;2023-04-24T06:58:36;29.42;;;13.27;;
79691;SDS011;69158;55.592;37.610;2023-04-24T07:01:22;26.13;;;11.35;;
79691;SDS011;69158;55.592;37.610;2023-04-24T07:04:08;26.05;;;11.32;;
79691;SDS011;69158;55.592;37.610;2023-04-24T07:06:54;23.35;;;10.50;;
79691;SDS011;69158;55.592;37.610;2023-04-24T07:09:41;19.23;;;10.45;;
79691;SDS011;69158;55.592;37.610;2023-04-24T07:12:27;24.60;;;8.85;;
79691;SDS011;69158;55.592;37.610;2023-04-24T07:15:16;18.98;;;7.95;;
79691;SDS011;69158;55.592;37.610;2023-04-24T07:18:02;15.82;;;8.88;;
79691;SDS011;69158;55.592;37.610;2023-04-24T07:20:48;17.88;;;8.13;;
79691;SDS011;69158;55.592;37.610;2023-04-24T07:23:37;18.80;;;8.52;;
79691;SDS011;69158;55.592;37.610;2023-04-24T07:26:23;13.07;;;7.38;;
79691;SDS011;69158;55.592;37.610;2023-04-24T07:29:09;18.60;;;11.20;;
79691;SDS011;69158;55.592;37.610;2023-04-24T07:31:55;20.25;;;8.43;;
79691;SDS011;69158;55.592;37.610;2023-04-24T07:34:42;16.98;;;8.20;;
79691;SDS011;69158;55.592;37.610;2023-04-24T07:37:27;11.50;;;5.97;;
79691;SDS011;69158;55.592;37.610;2023-04-24T07:40:13;19.42;;;6.97;;
79691;SDS011;69158;55.592;37.610;2023-04-24T07:43:00;15.68;;;6.55;;
79691;SDS011;69158;55.592;37.610;2023-04-24T07:45:46;11.60;;;6.55;;
79691;SDS011;69158;55.592;37.610;2023-04-24T07:48:32;11.85;;;6.20;;
79691;SDS011;69158;55.592;37.610;2023-04-24T07:51:18;13.10;;;9.30;;
79691;SDS011;69158;55.592;37.610;2023-04-24T07:54:04;15.32;;;5.78;;
79691;SDS011;69158;55.592;37.610;2023-04-24T07:56:53;11.55;;;7.18;;
79691;SDS011;69158;55.592;37.610;2023-04-24T07:59:39;10.70;;;6.32;;
79691;SDS011;69158;55.592;37.610;2023-04-24T08:02:26;14.88;;;5.43;;
79691;SDS011;69158;55.592;37.610;2023-04-24T08:05:12;9.65;;;6.07;;
79691;SDS011;69158;55.592;37.610;2023-04-24T08:07:58;9.18;;;5.97;;
79691;SDS011;69158;55.592;37.610;2023-04-24T08:10:44;13.32;;;7.78;;
79691;SDS011;69158;55.592;37.610;2023-04-24T08:13:30;10.88;;;6.45;;
79691;SDS011;69158;55.592;37.610;2023-04-24T08:16:16;11.05;;;6.05;;
79691;SDS011;69158;55.592;37.610;2023-04-24T08:19:02;12.05;;;6.45;;
79691;SDS011;69158;55.592;37.610;2023-04-24T08:21:48;10.73;;;6.55;;
79691;SDS011;69158;55.592;37.610;2023-04-24T08:24:34;11.95;;;6.22;;
79691;SDS011;69158;55.592;37.610;2023-04-24T08:27:20;18.58;;;7.00;;
79691;SDS011;69158;55.592;37.610;2023-04-24T08:30:07;11.77;;;5.85;;
79691;SDS011;69158;55.592;37.610;2023-04-24T08:36:18;10.20;;;5.70;;
79691;SDS011;69158;55.592;37.610;2023-04-24T08:39:04;10.05;;;5.85;;
79691;SDS011;69158;55.592;37.610;2023-04-24T08:41:51;13.20;;;8.50;;
79691;SDS011;69158;55.592;37.610;2023-04-24T08:44:38;9.63;;;4.88;;
79691;SDS011;69158;55.592;37.610;2023-04-24T08:47:24;12.73;;;9.68;;
79691;SDS011;69158;55.592;37.610;2023-04-24T08:50:12;10.00;;;5.40;;
79691;SDS011;69158;55.592;37.610;2023-04-24T08:52:58;10.82;;;5.25;;
79691;SDS011;69158;55.592;37.610;2023-04-24T08:55:46;11.55;;;5.10;;
79691;SDS011;69158;55.592;37.610;2023-04-24T08:58:33;10.27;;;5.63;;
79691;SDS011;69158;55.592;37.610;2023-04-24T09:01:19;14.60;;;5.50;;
79691;SDS011;69158;55.592;37.610;2023-04-24T09:04:11;11.23;;;5.35;;
79691;SDS011;69158;55.592;37.610;2023-04-24T09:07:00;9.13;;;4.93;;
79691;SDS011;69158;55.592;37.610;2023-04-24T09:09:46;11.57;;;6.15;;
79691;SDS011;69158;55.592;37.610;2023-04-24T09:12:35;12.13;;;5.38;;
79691;SDS011;69158;55.592;37.610;2023-04-24T09:15:21;13.88;;;5.97;;
79691;SDS011;69158;55.592;37.610;2023-04-24T09:18:07;12.75;;;5.25;;
79691;SDS011;69158;55.592;37.610;2023-04-24T09:20:57;10.15;;;5.53;;
79691;SDS011;69158;55.592;37.610;2023-04-24T09:23:59;9.70;;;6.05;;
79691;SDS011;69158;55.592;37.610;2023-04-24T09:26:56;8.35;;;4.72;;
79691;SDS011;69158;55.592;37.610;2023-04-24T09:29:55;15.13;;;5.38;;
79691;SDS011;69158;55.592;37.610;2023-04-24T09:32:42;10.70;;;6.10;;
79691;SDS011;69158;55.592;37.610;2023-04-24T09:35:28;13.35;;;6.30;;
79691;SDS011;69158;55.592;37.610;2023-04-24T09:38:13;12.15;;;8.38;;
79691;SDS011;69158;55.592;37.610;2023-04-24T09:41:00;8.98;;;4.95;;
79691;SDS011;69158;55.592;37.610;2023-04-24T09:43:56;8.32;;;5.40;;
79691;SDS011;69158;55.592;37.610;2023-04-24T09:46:42;9.82;;;4.72;;
79691;SDS011;69158;55.592;37.610;2023-04-24T09:49:31;11.10;;;5.30;;
79691;SDS011;69158;55.592;37.610;2023-04-24T09:52:21;12.40;;;5.97;;
79691;SDS011;69158;55.592;37.610;2023-04-24T09:55:18;12.80;;;5.97;;
79691;SDS011;69158;55.592;37.610;2023-04-24T09:58:05;11.98;;;6.72;;
79691;SDS011;69158;55.592;37.610;2023-04-24T10:00:55;13.98;;;5.95;;
79691;SDS011;69158;55.592;37.610;2023-04-24T10:03:42;10.02;;;5.72;;
79691;SDS011;69158;55.592;37.610;2023-04-24T10:06:37;11.90;;;5.97;;
79691;SDS011;69158;55.592;37.610;2023-04-24T10:09:24;12.32;;;5.75;;
79691;SDS011;69158;55.592;37.610;2023-04-24T10:12:13;9.27;;;5.55;;
79691;SDS011;69158;55.592;37.610;2023-04-24T10:15:01;8.48;;;5.30;;
79691;SDS011;69158;55.592;37.610;2023-04-24T10:17:50;9.05;;;4.80;;
79691;SDS011;69158;55.592;37.610;2023-04-24T10:20:43;7.97;;;4.50;;
79691;SDS011;69158;55.592;37.610;2023-04-24T10:23:30;10.15;;;4.20;;
79691;SDS011;69158;55.592;37.610;2023-04-24T10:26:17;12.15;;;4.93;;
79691;SDS011;69158;55.592;37.610;2023-04-24T10:29:04;13.77;;;5.25;;
79691;SDS011;69158;55.592;37.610;2023-04-24T10:31:58;12.52;;;4.78;;
79691;SDS011;69158;55.592;37.610;2023-04-24T10:34:44;11.45;;;7.05;;
79691;SDS011;69158;55.592;37.610;2023-04-24T10:37:33;9.43;;;5.50;;
79691;SDS011;69158;55.592;37.610;2023-04-24T10:40:26;10.55;;;5.75;;
79691;SDS011;69158;55.592;37.610;2023-04-24T10:43:16;11.18;;;5.47;;
79691;SDS011;69158;55.592;37.610;2023-04-24T10:46:05;9.20;;;5.32;;
79691;SDS011;69158;55.592;37.610;2023-04-24T10:48:54;11.27;;;4.60;;
79691;SDS011;69158;55.592;37.610;2023-04-24T10:51:49;10.73;;;5.22;;
79691;SDS011;69158;55.592;37.610;2023-04-24T10:54:46;8.32;;;4.57;;
79691;SDS011;69158;55.592;37.610;2023-04-24T10:57:34;10.70;;;4.45;;
79691;SDS011;69158;55.592;37.610;2023-04-24T11:00:25;11.90;;;5.38;;
79691;SDS011;69158;55.592;37.610;2023-04-24T11:06:36;11.65;;;5.30;;
79691;SDS011;69158;55.592;37.610;2023-04-24T11:09:22;8.80;;;4.60;;
79691;SDS011;69158;55.592;37.610;2023-04-24T11:12:21;9.00;;;4.60;;
79691;SDS011;69158;55.592;37.610;2023-04-24T11:15:15;13.27;;;5.38;;
79691;SDS011;69158;55.592;37.610;2023-04-24T11:18:05;11.07;;;5.68;;
79691;SDS011;69158;55.592;37.610;2023-04-24T11:20:53;10.32;;;5.28;;
79691;SDS011;69158;55.592;37.610;2023-04-24T11:23:41;9.63;;;4.97;;
79691;SDS011;69158;55.592;37.610;2023-04-24T11:26:30;10.07;;;5.35;;
79691;SDS011;69158;55.592;37.610;2023-04-24T11:32:39;8.60;;;4.90;;
79691;SDS011;69158;55.592;37.610;2023-04-24T11:35:28;11.93;;;5.00;;
79691;SDS011;69158;55.592;37.610;2023-04-24T11:38:17;10.45;;;4.43;;
79691;SDS011;69158;55.592;37.610;2023-04-24T11:41:03;11.40;;;4.43;;
79691;SDS011;69158;55.592;37.610;2023-04-24T11:43:51;11.40;;;4.82;;
79691;SDS011;69158;55.592;37.610;2023-04-24T11:46:40;11.77;;;7.13;;
79691;SDS011;69158;55.592;37.610;2023-04-24T11:49:26;10.63;;;5.03;;
79691;SDS011;69158;55.592;37.610;2023-04-24T11:52:15;13.43;;;5.97;;
79691;SDS011;69158;55.592;37.610;2023-04-24T11:55:02;11.63;;;4.63;;
79691;SDS011;69158;55.592;37.610;2023-04-24T11:57:50;10.10;;;4.68;;
79691;SDS011;69158;55.592;37.610;2023-04-24T12:00:36;8.27;;;4.50;;
79691;SDS011;69158;55.592;37.610;2023-04-24T12:03:23;8.73;;;4.40;;
79691;SDS011;69158;55.592;37.610;2023-04-24T12:06:15;11.35;;;4.20;;
79691;SDS011;69158;55.592;37.610;2023-04-24T12:11:56;11.65;;;4.22;;
79691;SDS011;69158;55.592;37.610;2023-04-24T12:14:47;8.52;;;4.13;;
79691;SDS011;69158;55.592;37.610;2023-04-24T12:17:35;10.25;;;3.95;;
79691;SDS011;69158;55.592;37.610;2023-04-24T12:20:30;14.50;;;4.15;;
79691;SDS011;69158;55.592;37.610;2023-04-24T12:23:33;9.48;;;4.50;;
79691;SDS011;69158;55.592;37.610;2023-04-24T12:26:23;10.50;;;4.43;;
79691;SDS011;69158;55.592;37.610;2023-04-24T12:29:09;8.43;;;3.83;;
79691;SDS011;69158;55.592;37.610;2023-04-24T12:31:59;13.10;;;4.47;;
79691;SDS011;69158;55.592;37.610;2023-04-24T12:34:46;12.68;;;4.30;;
79691;SDS011;69158;55.592;37.610;2023-04-24T12:37:32;15.23;;;5.28;;
79691;SDS011;69158;55.592;37.610;2023-04-24T12:40:20;10.73;;;4.72;;
79691;SDS011;69158;55.592;37.610;2023-04-24T12:43:17;12.95;;;5.13;;
79691;SDS011;69158;55.592;37.610;2023-04-24T12:46:04;7.70;;;3.60;;
79691;SDS011;69158;55.592;37.610;2023-04-24T12:48:51;9.40;;;4.22;;
79691;SDS011;69158;55.592;37.610;2023-04-24T12:51:37;10.77;;;4.07;;
79691;SDS011;69158;55.592;37.610;2023-04-24T12:54:23;11.32;;;4.75;;
79691;SDS011;69158;55.592;37.610;2023-04-24T12:57:08;10.63;;;4.68;;
79691;SDS011;69158;55.592;37.610;2023-04-24T12:59:55;11.93;;;4.07;;
79691;SDS011;69158;55.592;37.610;2023-04-24T13:02:42;11.35;;;6.25;;
79691;SDS011;69158;55.592;37.610;2023-04-24T13:05:28;12.02;;;4.82;;
79691;SDS011;69158;55.592;37.610;2023-04-24T13:08:14;10.48;;;4.45;;
79691;SDS011;69158;55.592;37.610;2023-04-24T13:11:00;9.50;;;4.28;;
79691;SDS011;69158;55.592;37.610;2023-04-24T13:13:46;10.00;;;4.80;;
79691;SDS011;69158;55.592;37.610;2023-04-24T13:16:32;11.27;;;4.70;;
79691;SDS011;69158;55.592;37.610;2023-04-24T13:19:18;9.07;;;4.05;;
79691;SDS011;69158;55.592;37.610;2023-04-24T13:22:04;9.02;;;4.40;;
79691;SDS011;69158;55.592;37.610;2023-04-24T13:24:50;8.95;;;4.65;;
79691;SDS011;69158;55.592;37.610;2023-04-24T13:27:39;7.90;;;4.18;;
79691;SDS011;69158;55.592;37.610;2023-04-24T13:30:25;17.80;;;4.20;;
79691;SDS011;69158;55.592;37.610;2023-04-24T13:33:11;9.75;;;3.45;;
79691;SDS011;69158;55.592;37.610;2023-04-24T13:35:57;11.85;;;4.20;;
79691;SDS011;69158;55.592;37.610;2023-04-24T13:38:53;10.68;;;4.38;;
79691;SDS011;69158;55.592;37.610;2023-04-24T13:41:39;8.88;;;4.07;;
79691;SDS011;69158;55.592;37.610;2023-04-24T13:44:25;12.23;;;4.20;;
79691;SDS011;69158;55.592;37.610;2023-04-24T13:47:11;10.70;;;3.47;;
79691;SDS011;69158;55.592;37.610;2023-04-24T13:49:57;12.48;;;4.45;;
79691;SDS011;69158;55.592;37.610;2023-04-24T13:52:43;13.55;;;4.60;;
79691;SDS011;69158;55.592;37.610;2023-04-24T13:55:29;9.52;;;3.88;;
79691;SDS011;69158;55.592;37.610;2023-04-24T13:58:16;15.38;;;5.30;;
79691;SDS011;69158;55.592;37.610;2023-04-24T14:01:02;9.90;;;5.63;;
79691;SDS011;69158;55.592;37.610;2023-04-24T14:03:48;12.82;;;5.65;;
79691;SDS011;69158;55.592;37.610;2023-04-24T14:06:35;12.52;;;4.40;;
79691;SDS011;69158;55.592;37.610;2023-04-24T14:09:21;9.02;;;3.47;;
79691;SDS011;69158;55.592;37.610;2023-04-24T14:12:07;7.95;;;3.67;;
79691;SDS011;69158;55.592;37.610;2023-04-24T14:14:53;9.90;;;3.97;;
79691;SDS011;69158;55.592;37.610;2023-04-24T14:17:41;8.00;;;4.10;;
79691;SDS011;69158;55.592;37.610;2023-04-24T14:20:27;12.38;;;3.53;;
79691;SDS011;69158;55.592;37.610;2023-04-24T14:23:13;10.52;;;4.97;;
79691;SDS011;69158;55.592;37.610;2023-04-24T14:26:02;12.02;;;5.10;;
79691;SDS011;69158;55.592;37.610;2023-04-24T14:28:48;11.05;;;4.40;;
79691;SDS011;69158;55.592;37.610;2023-04-24T14:31:34;8.85;;;3.58;;
79691;SDS011;69158;55.592;37.610;2023-04-24T14:34:20;10.52;;;4.43;;
79691;SDS011;69158;55.592;37.610;2023-04-24T14:37:06;17.90;;;4.20;;
79691;SDS011;69158;55.592;37.610;2023-04-24T14:39:53;11.68;;;4.35;;
79691;SDS011;69158;55.592;37.610;2023-04-24T14:42:39;18.67;;;5.28;;
79691;SDS011;69158;55.592;37.610;2023-04-24T14:45:27;12.45;;;5.15;;
79691;SDS011;69158;55.592;37.610;2023-04-24T14:48:14;17.27;;;5.30;;
79691;SDS011;69158;55.592;37.610;2023-04-24T14:53:56;14.90;;;4.00;;
79691;SDS011;69158;55.592;37.610;2023-04-24T14:56:52;8.63;;;4.03;;
79691;SDS011;69158;55.592;37.610;2023-04-24T15:21:44;13.23;;;5.25;;
79691;SDS011;69158;55.592;37.610;2023-04-24T15:24:31;15.57;;;4.93;;
79691;SDS011;69158;55.592;37.610;2023-04-24T15:27:17;15.95;;;4.43;;
79691;SDS011;69158;55.592;37.610;2023-04-24T15:30:03;16.52;;;5.35;;
79691;SDS011;69158;55.592;37.610;2023-04-24T15:32:49;8.93;;;3.47;;
79691;SDS011;69158;55.592;37.610;2023-04-24T15:35:35;10.05;;;3.85;;
79691;SDS011;69158;55.592;37.610;2023-04-24T15:38:21;12.35;;;4.60;;
79691;SDS011;69158;55.592;37.610;2023-04-24T15:41:07;13.13;;;4.53;;
79691;SDS011;69158;55.592;37.610;2023-04-24T15:43:53;13.45;;;3.85;;
79691;SDS011;69158;55.592;37.610;2023-04-24T15:46:39;13.73;;;4.45;;
79691;SDS011;69158;55.592;37.610;2023-04-24T15:49:25;18.98;;;7.35;;
79691;SDS011;69158;55.592;37.610;2023-04-24T15:52:12;14.23;;;6.13;;
79691;SDS011;69158;55.592;37.610;2023-04-24T15:54:59;13.98;;;4.93;;
79691;SDS011;69158;55.592;37.610;2023-04-24T15:57:45;15.23;;;5.93;;
79691;SDS011;69158;55.592;37.610;2023-04-24T16:00:31;14.98;;;6.43;;
79691;SDS011;69158;55.592;37.610;2023-04-24T16:03:20;15.07;;;4.63;;
79691;SDS011;69158;55.592;37.610;2023-04-24T16:06:06;16.17;;;6.35;;
79691;SDS011;69158;55.592;37.610;2023-04-24T16:08:52;18.27;;;5.55;;
79691;SDS011;69158;55.592;37.610;2023-04-24T16:11:40;17.73;;;6.07;;
79691;SDS011;69158;55.592;37.610;2023-04-24T16:14:31;15.25;;;5.75;;
79691;SDS011;69158;55.592;37.610;2023-04-24T16:17:19;17.08;;;4.90;;
79691;SDS011;69158;55.592;37.610;2023-04-24T16:20:05;13.35;;;4.88;;
79691;SDS011;69158;55.592;37.610;2023-04-24T16:22:53;26.63;;;6.07;;
79691;SDS011;69158;55.592;37.610;2023-04-24T16:25:39;20.02;;;6.65;;
79691;SDS011;69158;55.592;37.610;2023-04-24T16:28:25;20.92;;;5.40;;
79691;SDS011;69158;55.592;37.610;2023-04-24T16:31:12;17.58;;;5.22;;
79691;SDS011;69158;55.592;37.610;2023-04-24T16:33:59;18.45;;;6.10;;
79691;SDS011;69158;55.592;37.610;2023-04-24T16:36:45;16.25;;;5.82;;
79691;SDS011;69158;55.592;37.610;2023-04-24T16:39:32;20.90;;;7.00;;
79691;SDS011;69158;55.592;37.610;2023-04-24T16:42:18;14.25;;;5.75;;
79691;SDS011;69158;55.592;37.610;2023-04-24T16:45:07;16.73;;;5.35;;
79691;SDS011;69158;55.592;37.610;2023-04-24T16:47:54;20.00;;;6.20;;
79691;SDS011;69158;55.592;37.610;2023-04-24T16:53:31;17.63;;;5.70;;
79691;SDS011;69158;55.592;37.610;2023-04-24T16:56:17;25.50;;;5.95;;